createdAt,value
2024-01-12T00:01:03.748Z,2.92
2024-01-12T00:03:37.892Z,2.92
2024-01-12T00:06:11.380Z,3.13
2024-01-12T00:08:44.286Z,3.05
2024-01-12T00:11:18.974Z,2.88
2024-01-12T00:13:51.776Z,2.80
2024-01-12T00:16:24.628Z,2.85
2024-01-12T00:18:57.531Z,2.75
2024-01-12T00:21:30.251Z,3.55
2024-01-12T00:24:03.218Z,2.85
2024-01-12T00:26:36.070Z,2.72
2024-01-12T00:29:09.540Z,2.78
2024-01-12T00:31:42.616Z,2.55
2024-01-12T00:34:15.354Z,3.00
2024-01-12T00:36:49.626Z,2.50
2024-01-12T00:39:22.410Z,2.80
2024-01-12T00:41:55.770Z,2.92
2024-01-12T00:44:28.590Z,2.70
2024-01-12T00:47:01.407Z,2.97
2024-01-12T00:49:34.280Z,2.95
2024-01-12T00:52:07.250Z,3.20
2024-01-12T00:54:40.566Z,3.40
2024-01-12T00:59:46.519Z,2.83
2024-01-12T01:02:19.350Z,3.75
2024-01-12T01:04:52.450Z,3.10
2024-01-12T01:07:25.218Z,3.15
2024-01-12T01:09:58.129Z,2.50
2024-01-12T01:12:30.889Z,3.30
2024-01-12T01:15:06.042Z,3.33
2024-01-12T01:17:38.910Z,3.03
2024-01-12T01:20:12.658Z,3.13
2024-01-12T01:22:45.631Z,3.33
2024-01-12T01:25:18.510Z,3.08
2024-01-12T01:27:51.720Z,3.20
2024-01-12T01:32:57.423Z,2.70
2024-01-12T01:35:30.407Z,3.15
2024-01-12T01:38:03.323Z,2.63
2024-01-12T01:40:36.187Z,2.75
2024-01-12T01:43:10.079Z,3.03
2024-01-12T01:45:45.723Z,2.70
2024-01-12T01:48:18.671Z,2.75
2024-01-12T01:50:51.719Z,3.17
2024-01-12T01:53:24.945Z,2.60
2024-01-12T01:55:57.873Z,3.53
2024-01-12T01:58:30.905Z,3.13
2024-01-12T02:01:04.468Z,2.90
2024-01-12T02:03:40.600Z,2.72
2024-01-12T02:06:13.903Z,3.05
2024-01-12T02:11:20.975Z,2.70
2024-01-12T02:13:53.818Z,2.35
2024-01-12T02:16:26.925Z,2.53
2024-01-12T02:18:59.698Z,2.05
2024-01-12T02:21:32.626Z,2.13
2024-01-12T02:24:05.757Z,1.77
2024-01-12T02:26:38.770Z,2.15
2024-01-12T02:29:11.567Z,1.92
2024-01-12T02:31:45.235Z,2.10
2024-01-12T02:34:18.292Z,2.25
2024-01-12T02:36:51.075Z,2.45
2024-01-12T02:39:23.856Z,2.45
2024-01-12T02:41:59.048Z,2.38
2024-01-12T02:44:31.896Z,2.40
2024-01-12T02:47:04.909Z,2.60
2024-01-12T02:49:37.886Z,1.88
2024-01-12T02:52:10.826Z,1.90
2024-01-12T02:54:46.531Z,1.77
2024-01-12T02:57:20.367Z,1.60
2024-01-12T02:59:53.277Z,1.88
2024-01-12T03:02:26.550Z,2.05
2024-01-12T03:04:59.545Z,1.77
2024-01-12T03:07:32.465Z,1.75
2024-01-12T03:10:06.159Z,1.65
2024-01-12T03:12:39.071Z,1.40
2024-01-12T03:15:11.839Z,1.42
2024-01-12T03:17:45.070Z,1.48
2024-01-12T03:20:18.180Z,1.30
2024-01-12T03:22:51.018Z,1.27
2024-01-12T03:25:23.686Z,1.33
2024-01-12T03:27:56.541Z,1.50
2024-01-12T03:30:29.324Z,1.63
2024-01-12T03:33:05.158Z,1.45
2024-01-12T03:35:38.384Z,1.75
2024-01-12T03:38:14.181Z,1.80
2024-01-12T03:40:47.161Z,1.63
2024-01-12T03:43:19.923Z,1.50
2024-01-12T03:45:52.710Z,1.60
2024-01-12T03:48:25.835Z,1.73
2024-01-12T03:50:58.848Z,1.73
2024-01-12T03:53:31.661Z,1.50
2024-01-12T03:56:04.749Z,1.83
2024-01-12T03:58:40.642Z,1.60
2024-01-12T04:01:13.493Z,1.67
2024-01-12T04:03:46.284Z,1.40
2024-01-12T04:06:20.489Z,1.65
2024-01-12T04:08:53.346Z,1.50
2024-01-12T04:11:26.532Z,1.15
2024-01-12T04:13:59.329Z,2.20
2024-01-12T04:16:32.513Z,2.33
2024-01-12T04:19:05.335Z,2.13
2024-01-12T04:21:38.279Z,2.20
2024-01-12T04:24:11.094Z,2.83
2024-01-12T04:26:44.740Z,2.53
2024-01-12T04:29:17.709Z,2.65
2024-01-12T04:31:50.615Z,2.35
2024-01-12T04:34:23.561Z,2.47
2024-01-12T04:36:59.371Z,2.65
2024-01-12T04:39:32.255Z,3.08
2024-01-12T04:42:05.645Z,2.72
2024-01-12T04:44:38.620Z,3.00
2024-01-12T04:47:11.444Z,4.55
2024-01-12T04:49:44.346Z,2.78
2024-01-12T04:52:17.120Z,3.22
2024-01-12T04:54:49.942Z,3.45
2024-01-12T04:57:22.727Z,3.28
2024-01-12T04:59:55.757Z,3.42
2024-01-12T05:02:28.678Z,2.95
2024-01-12T05:05:01.496Z,3.72
2024-01-12T05:07:34.315Z,3.78
2024-01-12T05:10:08.354Z,3.60
2024-01-12T05:12:41.258Z,3.97
2024-01-12T05:15:14.066Z,3.95
2024-01-12T05:17:47.069Z,3.80
2024-01-12T05:20:22.726Z,3.70
2024-01-12T05:22:55.618Z,3.85
2024-01-12T05:25:28.449Z,3.30
2024-01-12T05:28:01.293Z,3.88
2024-01-12T05:30:34.569Z,3.88
2024-01-12T05:33:07.415Z,3.90
2024-01-12T05:35:40.231Z,3.75
2024-01-12T05:38:13.090Z,3.40
2024-01-12T05:40:45.840Z,4.13
2024-01-12T05:43:19.484Z,4.00
2024-01-12T05:45:52.265Z,3.80
2024-01-12T05:48:25.208Z,4.28
2024-01-12T05:50:58.184Z,4.22
2024-01-12T05:53:30.923Z,4.32
2024-01-12T05:56:06.769Z,4.47
2024-01-12T05:58:40.868Z,4.38
2024-01-12T06:01:13.881Z,4.45
2024-01-12T06:03:49.783Z,4.25
2024-01-12T06:06:23.752Z,4.53
2024-01-12T06:08:56.791Z,4.50
2024-01-12T06:11:29.746Z,3.92
2024-01-12T06:14:05.146Z,4.68
2024-01-12T06:16:38.426Z,4.28
2024-01-12T06:19:11.375Z,4.18
2024-01-12T06:21:44.284Z,4.57
2024-01-12T06:24:18.476Z,4.10
2024-01-12T06:26:51.614Z,4.45
2024-01-12T06:29:24.561Z,4.80
2024-01-12T06:31:57.372Z,4.60
2024-01-12T06:34:30.177Z,4.25
2024-01-12T06:37:05.540Z,4.90
2024-01-12T06:39:40.844Z,4.88
2024-01-12T06:42:13.788Z,4.60
2024-01-12T06:44:46.825Z,4.35
2024-01-12T06:47:19.826Z,3.78
2024-01-12T06:49:52.704Z,4.93
2024-01-12T06:52:25.467Z,4.38
2024-01-12T06:54:58.384Z,4.22
2024-01-12T06:57:31.322Z,4.38
2024-01-12T07:00:07.753Z,3.95
2024-01-12T07:02:40.646Z,4.07
2024-01-12T07:05:14.724Z,4.15
2024-01-12T07:07:47.817Z,4.05
2024-01-12T07:10:20.590Z,4.20
2024-01-12T07:12:54.102Z,3.58
2024-01-12T07:15:26.909Z,4.20
2024-01-12T07:18:00.560Z,4.25
2024-01-12T07:20:33.465Z,3.88
2024-01-12T07:23:06.257Z,4.80
2024-01-12T07:25:40.215Z,4.70
2024-01-12T07:28:13.111Z,4.40
2024-01-12T07:30:46.700Z,5.00
2024-01-12T07:33:19.839Z,4.50
2024-01-12T07:35:52.724Z,4.43
2024-01-12T07:38:28.725Z,4.80
2024-01-12T07:41:01.485Z,4.85
2024-01-12T07:43:34.566Z,4.15
2024-01-12T07:46:08.372Z,4.70
2024-01-12T07:48:41.522Z,4.00
2024-01-12T07:51:14.475Z,5.53
2024-01-12T07:53:47.475Z,4.35
2024-01-12T07:56:20.394Z,4.50
2024-01-12T07:58:53.290Z,4.40
2024-01-12T08:01:26.069Z,4.13
2024-01-12T08:03:58.989Z,4.47
2024-01-12T08:06:31.846Z,4.40
2024-01-12T08:09:05.202Z,4.20
2024-01-12T08:11:41.041Z,4.22
2024-01-12T08:14:14.266Z,3.92
2024-01-12T08:16:47.136Z,4.38
2024-01-12T08:19:19.872Z,4.45
2024-01-12T08:21:56.375Z,4.07
2024-01-12T08:24:30.079Z,5.43
2024-01-12T08:27:02.881Z,4.30
2024-01-12T08:29:35.767Z,4.45
2024-01-12T08:32:08.821Z,3.78
2024-01-12T08:34:41.886Z,4.00
2024-01-12T08:37:14.946Z,4.32
2024-01-12T08:39:47.690Z,3.50
2024-01-12T08:42:20.515Z,3.88
2024-01-12T08:44:53.409Z,4.78
2024-01-12T08:47:26.404Z,4.68
2024-01-12T08:49:59.678Z,5.05
2024-01-12T08:55:09.367Z,4.72
2024-01-12T08:57:42.152Z,4.30
2024-01-12T09:00:15.844Z,4.70
2024-01-12T09:02:48.769Z,3.53
2024-01-12T09:05:22.342Z,3.65
2024-01-12T09:07:55.161Z,3.45
2024-01-12T09:10:27.992Z,4.15
2024-01-12T09:13:01.421Z,4.63
2024-01-12T09:15:34.187Z,4.93
2024-01-12T09:18:08.289Z,4.47
2024-01-12T09:20:41.453Z,4.13
2024-01-12T09:23:14.323Z,3.58
2024-01-12T09:25:51.062Z,4.35
2024-01-12T09:28:24.827Z,4.20
2024-01-12T09:30:57.632Z,3.65
2024-01-12T09:33:31.935Z,3.95
2024-01-12T09:36:06.183Z,3.50
2024-01-12T09:38:39.112Z,3.88
2024-01-12T09:41:12.197Z,3.25
2024-01-12T09:43:46.936Z,3.03
2024-01-12T09:46:23.207Z,3.78
2024-01-12T09:48:56.056Z,3.33
2024-01-12T09:51:29.381Z,3.70
2024-01-12T09:56:41.962Z,3.08
2024-01-12T10:01:52.055Z,2.47
2024-01-12T10:04:26.303Z,3.20
2024-01-12T10:07:00.781Z,2.45
2024-01-12T10:09:36.697Z,2.95
2024-01-12T10:12:09.598Z,2.88
2024-01-12T10:14:42.442Z,2.10
2024-01-12T10:17:15.423Z,2.33
2024-01-12T10:19:48.376Z,2.47
2024-01-12T10:22:21.973Z,2.65
2024-01-12T10:25:05.773Z,2.60
2024-01-12T10:27:38.561Z,2.40
2024-01-12T10:30:13.274Z,2.63
2024-01-12T10:32:52.699Z,3.58
2024-01-12T10:35:25.743Z,2.92
2024-01-12T10:38:00.982Z,2.63
2024-01-12T10:40:34.116Z,2.88
2024-01-12T10:43:11.224Z,3.50
2024-01-12T10:45:46.625Z,2.90
2024-01-12T10:48:23.415Z,3.25
2024-01-12T10:51:02.005Z,3.13
2024-01-12T10:53:43.281Z,2.67
2024-01-12T10:56:17.098Z,3.20
2024-01-12T10:58:50.887Z,2.70
2024-01-12T11:01:25.610Z,3.17
2024-01-12T11:03:59.052Z,2.80
2024-01-12T11:06:33.358Z,2.60
2024-01-12T11:09:09.308Z,2.70
2024-01-12T11:11:50.733Z,3.08
2024-01-12T11:14:25.166Z,3.00
2024-01-12T11:16:58.868Z,2.35
2024-01-12T11:19:31.973Z,3.10
2024-01-12T11:22:08.872Z,2.95
2024-01-12T11:24:46.049Z,3.05
2024-01-12T11:27:19.118Z,3.80
2024-01-12T11:29:59.999Z,4.53
2024-01-12T11:32:33.411Z,4.22
2024-01-12T11:38:13.205Z,3.05
2024-01-12T11:40:50.022Z,3.05
2024-01-12T11:43:26.296Z,3.10
2024-01-12T11:45:59.652Z,3.22
2024-01-12T11:51:06.142Z,3.13
2024-01-12T11:53:39.319Z,3.78
2024-01-12T11:56:12.148Z,3.28
2024-01-12T11:58:44.961Z,3.10
2024-01-12T12:01:17.840Z,2.97
2024-01-12T12:03:50.675Z,2.47
2024-01-12T12:06:23.604Z,2.78
2024-01-12T12:08:58.917Z,2.40
2024-01-12T12:11:31.983Z,3.35
2024-01-12T12:14:05.072Z,2.60
2024-01-12T12:16:38.496Z,2.78
2024-01-12T12:19:11.893Z,3.28
2024-01-12T12:21:44.938Z,2.97
2024-01-12T12:24:18.047Z,3.40
2024-01-12T12:26:51.189Z,3.33
2024-01-12T12:29:24.469Z,3.05
2024-01-12T12:32:02.518Z,3.30
2024-01-12T12:34:35.373Z,3.47
2024-01-12T12:37:14.577Z,3.20
2024-01-12T12:39:47.876Z,3.47
2024-01-12T12:44:53.662Z,3.70
2024-01-12T12:47:26.755Z,3.28
2024-01-12T12:50:00.328Z,3.08
2024-01-12T12:52:33.934Z,3.13
2024-01-12T12:55:08.538Z,3.90
2024-01-12T12:57:42.132Z,3.45
2024-01-12T13:00:16.047Z,3.75
2024-01-12T13:02:49.381Z,3.03
2024-01-12T13:07:57.320Z,2.90
2024-01-12T13:10:30.321Z,3.00
2024-01-12T13:13:06.623Z,3.08
2024-01-12T13:15:39.580Z,2.95
2024-01-12T13:18:12.588Z,3.63
2024-01-12T13:20:50.134Z,3.13
2024-01-12T13:23:23.315Z,3.08
2024-01-12T13:25:56.066Z,2.97
2024-01-12T13:28:29.146Z,3.60
2024-01-12T13:31:01.928Z,3.35
2024-01-12T13:33:35.209Z,3.30
2024-01-12T13:38:41.438Z,3.10
2024-01-12T13:43:46.879Z,3.17
2024-01-12T13:46:19.665Z,3.22
2024-01-12T13:48:52.587Z,3.33
2024-01-12T13:51:25.553Z,3.08
2024-01-12T13:53:58.677Z,3.40
2024-01-12T13:56:32.466Z,3.22
2024-01-12T13:59:05.637Z,2.88
2024-01-12T14:01:39.478Z,3.20
2024-01-12T14:04:13.455Z,3.88
2024-01-12T14:06:47.455Z,4.47
2024-01-12T14:09:20.953Z,4.53
2024-01-12T14:11:54.190Z,3.90
2024-01-12T14:14:27.169Z,3.65
2024-01-12T14:17:01.861Z,4.38
2024-01-12T14:19:34.964Z,3.42
2024-01-12T14:22:07.854Z,4.40
2024-01-12T14:24:41.397Z,4.78
2024-01-12T14:29:46.958Z,3.97
2024-01-12T14:32:19.822Z,3.83
2024-01-12T14:34:52.814Z,4.05
2024-01-12T14:37:25.732Z,5.00
2024-01-12T14:39:58.550Z,3.90
2024-01-12T14:42:31.901Z,4.70
2024-01-12T14:45:06.866Z,4.30
2024-01-12T14:47:41.352Z,4.22
2024-01-12T14:50:14.303Z,4.50
2024-01-12T14:52:49.041Z,3.83
2024-01-12T14:55:22.029Z,3.65
2024-01-12T14:57:55.001Z,4.35
2024-01-12T15:00:28.045Z,3.90
2024-01-12T15:03:01.156Z,3.70
2024-01-12T15:05:35.801Z,3.35
2024-01-12T15:08:09.225Z,3.75
2024-01-12T15:13:15.532Z,3.42
2024-01-12T15:15:48.566Z,3.13
2024-01-12T15:18:21.503Z,3.67
2024-01-12T15:20:58.059Z,3.45
2024-01-12T15:23:31.031Z,3.95
2024-01-12T15:26:12.312Z,3.45
2024-01-12T15:28:46.844Z,4.55
2024-01-12T15:31:19.711Z,3.85
2024-01-12T15:33:52.853Z,4.07
2024-01-12T15:36:25.954Z,4.03
2024-01-12T15:38:58.872Z,4.00
2024-01-12T15:41:31.784Z,4.72
2024-01-12T15:44:04.730Z,4.13
2024-01-12T15:46:40.782Z,3.80
2024-01-12T15:49:13.697Z,4.63
2024-01-12T15:52:14.665Z,3.75
2024-01-12T15:54:47.525Z,3.78
2024-01-12T15:57:20.264Z,3.42
2024-01-12T15:59:53.143Z,3.63
2024-01-12T16:02:26.083Z,3.60
2024-01-12T16:04:59.061Z,3.83
2024-01-12T16:07:31.837Z,4.00
2024-01-12T16:10:05.402Z,3.40
2024-01-12T16:12:38.465Z,3.60
2024-01-12T16:15:11.616Z,4.03
2024-01-12T16:17:45.450Z,3.22
2024-01-12T16:20:18.553Z,3.50
2024-01-12T16:22:51.408Z,3.80
2024-01-12T16:25:24.763Z,3.67
2024-01-12T16:27:57.539Z,5.93
2024-01-12T16:30:30.461Z,3.80
2024-01-12T16:33:04.099Z,4.13
2024-01-12T16:35:37.086Z,4.80
2024-01-12T16:38:10.829Z,3.85
2024-01-12T16:40:45.178Z,4.07
2024-01-12T16:43:17.889Z,4.65
2024-01-12T16:45:50.662Z,4.82
2024-01-12T16:48:23.614Z,5.28
2024-01-12T16:50:56.807Z,5.10
2024-01-12T16:53:29.625Z,4.50
2024-01-12T16:56:02.528Z,5.18
2024-01-12T16:58:37.447Z,5.18
2024-01-12T17:01:10.540Z,4.47
2024-01-12T17:03:43.575Z,4.88
2024-01-12T17:06:17.676Z,5.55
2024-01-12T17:08:50.655Z,4.60
2024-01-12T17:11:23.657Z,4.30
2024-01-12T17:13:58.918Z,4.90
2024-01-12T17:16:36.243Z,4.95
2024-01-12T17:19:10.499Z,5.25
2024-01-12T17:21:43.721Z,7.78
2024-01-12T17:24:18.153Z,5.65
2024-01-12T17:26:51.437Z,5.10
2024-01-12T17:31:58.113Z,5.20
2024-01-12T17:34:34.854Z,5.18
2024-01-12T17:37:07.769Z,5.80
2024-01-12T17:39:43.206Z,5.03
2024-01-12T17:42:16.378Z,5.78
2024-01-12T17:44:50.032Z,5.63
2024-01-12T17:47:23.948Z,5.75
2024-01-12T17:49:57.067Z,5.72
2024-01-12T17:52:30.153Z,6.00
2024-01-12T17:55:02.979Z,5.95
2024-01-12T17:57:35.781Z,5.47
2024-01-12T18:00:10.661Z,5.75
2024-01-12T18:02:43.479Z,5.60
2024-01-12T18:05:17.677Z,5.90
2024-01-12T18:07:50.641Z,6.13
2024-01-12T18:10:24.879Z,6.57
2024-01-12T18:12:57.744Z,6.53
2024-01-12T18:15:31.837Z,6.00
2024-01-12T18:21:03.055Z,5.97
2024-01-12T18:23:35.915Z,5.40
2024-01-12T18:26:08.745Z,5.93
2024-01-12T18:28:41.776Z,6.47
2024-01-12T18:31:14.632Z,6.57
2024-01-12T18:33:48.254Z,5.53
2024-01-12T18:36:21.297Z,6.30
2024-01-12T18:38:54.366Z,6.65
2024-01-12T18:41:29.473Z,5.57
2024-01-12T18:44:03.494Z,6.15
2024-01-12T18:46:36.194Z,6.70
2024-01-12T18:49:09.094Z,6.43
2024-01-12T18:51:43.283Z,6.28
2024-01-12T18:54:17.552Z,6.75
2024-01-12T18:56:50.443Z,6.05
2024-01-12T18:59:23.169Z,6.38
2024-01-12T19:01:57.013Z,6.55
2024-01-12T19:04:30.481Z,7.07
2024-01-12T19:07:03.267Z,7.10
2024-01-12T19:09:36.033Z,6.72
2024-01-12T19:12:10.104Z,6.57
2024-01-12T19:14:42.885Z,6.75
2024-01-12T19:17:15.706Z,7.72
2024-01-12T19:19:48.619Z,7.32
2024-01-12T19:22:22.662Z,7.50
2024-01-12T19:24:55.474Z,7.45
2024-01-12T19:27:28.263Z,7.35
2024-01-12T19:30:09.531Z,7.82
2024-01-12T19:32:43.724Z,7.45
2024-01-12T19:35:16.615Z,6.55
2024-01-12T19:37:49.451Z,7.22
2024-01-12T19:40:22.149Z,7.28
2024-01-12T19:42:54.928Z,8.00
2024-01-12T19:45:27.874Z,7.13
2024-01-12T19:48:00.846Z,7.22
2024-01-12T19:50:33.710Z,7.63
2024-01-12T19:53:06.536Z,6.82
2024-01-12T19:55:39.245Z,6.97
2024-01-12T19:58:12.335Z,7.47
2024-01-12T20:00:45.132Z,7.18
2024-01-12T20:03:18.003Z,6.80
2024-01-12T20:05:50.797Z,7.43
2024-01-12T20:08:24.953Z,6.50
2024-01-12T20:10:57.762Z,7.53
2024-01-12T20:13:30.576Z,7.78
2024-01-12T20:16:03.386Z,7.10
2024-01-12T20:21:34.543Z,7.38
2024-01-12T20:24:07.581Z,8.07
2024-01-12T20:26:40.457Z,8.95
2024-01-12T20:29:13.150Z,8.90
2024-01-12T20:31:46.195Z,9.13
2024-01-12T20:34:19.071Z,9.60
2024-01-12T20:36:51.851Z,9.43
2024-01-12T20:39:24.545Z,9.70
2024-01-12T20:41:57.536Z,9.55
2024-01-12T20:44:30.493Z,9.73
2024-01-12T20:47:03.317Z,9.80
2024-01-12T20:49:40.828Z,9.82
2024-01-12T20:52:14.558Z,9.55
2024-01-12T20:54:50.115Z,9.52
2024-01-12T20:57:23.881Z,8.85
2024-01-12T20:59:56.817Z,9.02
2024-01-12T21:02:29.586Z,8.45
2024-01-12T21:05:02.496Z,8.23
2024-01-12T21:07:35.279Z,8.40
2024-01-12T21:10:09.252Z,8.65
2024-01-12T21:12:41.999Z,9.00
2024-01-12T21:15:15.967Z,8.50
2024-01-12T21:17:50.817Z,8.02
2024-01-12T21:20:23.738Z,8.55
2024-01-12T21:22:56.805Z,9.25
2024-01-12T21:25:30.707Z,8.45
2024-01-12T21:28:03.615Z,8.13
2024-01-12T21:30:36.656Z,8.05
2024-01-12T21:33:10.137Z,8.18
2024-01-12T21:35:43.233Z,8.35
2024-01-12T21:38:16.273Z,8.77
2024-01-12T21:40:50.616Z,9.05
2024-01-12T21:43:23.354Z,9.93
2024-01-12T21:45:56.223Z,10.43
2024-01-12T21:48:29.242Z,10.55
2024-01-12T21:51:02.439Z,10.23
2024-01-12T21:53:35.231Z,9.43
2024-01-12T21:56:08.334Z,10.45
2024-01-12T21:58:41.160Z,11.13
2024-01-12T22:01:16.329Z,10.52
2024-01-12T22:03:49.899Z,11.35
2024-01-12T22:06:23.106Z,10.90
2024-01-12T22:08:56.009Z,10.73
2024-01-12T22:11:29.153Z,10.75
2024-01-12T22:14:03.977Z,11.00
2024-01-12T22:16:37.006Z,10.35
2024-01-12T22:19:10.892Z,11.10
2024-01-12T22:21:44.005Z,10.02
2024-01-12T22:24:17.886Z,9.95
2024-01-12T22:26:50.874Z,11.20
2024-01-12T22:29:27.111Z,10.95
2024-01-12T22:32:00.117Z,9.57
2024-01-12T22:34:34.380Z,8.48
2024-01-12T22:37:07.370Z,9.85
2024-01-12T22:39:40.156Z,9.30
2024-01-12T22:42:12.954Z,9.65
2024-01-12T22:44:45.830Z,9.50
2024-01-12T22:47:18.860Z,8.85
2024-01-12T22:49:51.689Z,8.05
2024-01-12T22:52:24.430Z,9.02
2024-01-12T22:54:58.310Z,8.60
2024-01-12T22:57:31.115Z,8.68
2024-01-12T23:00:06.050Z,8.40
2024-01-12T23:02:40.027Z,7.78
2024-01-12T23:05:13.007Z,8.18
2024-01-12T23:07:47.053Z,7.88
2024-01-12T23:10:19.874Z,7.53
2024-01-12T23:12:52.764Z,7.88
2024-01-12T23:15:28.348Z,8.25
2024-01-12T23:18:01.314Z,8.32
2024-01-12T23:20:37.393Z,8.05
2024-01-12T23:23:13.129Z,8.57
2024-01-12T23:25:46.231Z,9.60
2024-01-12T23:28:22.098Z,8.43
2024-01-12T23:30:57.515Z,8.63
2024-01-12T23:33:30.757Z,8.73
2024-01-12T23:36:04.121Z,8.90
2024-01-12T23:41:09.610Z,9.45
2024-01-12T23:43:42.613Z,9.77
2024-01-12T23:46:15.445Z,9.88
2024-01-12T23:48:48.344Z,8.73
2024-01-12T23:51:21.251Z,9.55
2024-01-12T23:53:58.650Z,8.90
2024-01-12T23:56:31.535Z,8.52
2024-01-12T23:59:04.665Z,9.27
